sensor_id;sensor_type;location;lat;lon;timestamp;P1;durP1;ratioP1;P2;durP2;ratioP2
31282;SDS011;17915;52.540;13.604;2022-12-16T00:00:11;61.63;;;26.03;;
31282;SDS011;17915;52.540;13.604;2022-12-16T00:02:38;60.38;;;25.77;;
31282;SDS011;17915;52.540;13.604;2022-12-16T00:05:04;63.80;;;28.88;;
31282;SDS011;17915;52.540;13.604;2022-12-16T00:07:30;59.67;;;23.30;;
31282;SDS011;17915;52.540;13.604;2022-12-16T00:09:55;54.38;;;22.10;;
31282;SDS011;17915;52.540;13.604;2022-12-16T00:12:21;59.43;;;24.37;;
31282;SDS011;17915;52.540;13.604;2022-12-16T00:14:46;48.63;;;23.15;;
31282;SDS011;17915;52.540;13.604;2022-12-16T00:17:12;59.10;;;23.53;;
31282;SDS011;17915;52.540;13.604;2022-12-16T00:19:37;60.70;;;25.00;;
31282;SDS011;17915;52.540;13.604;2022-12-16T00:22:02;57.87;;;25.33;;
31282;SDS011;17915;52.540;13.604;2022-12-16T00:24:28;55.23;;;22.90;;
31282;SDS011;17915;52.540;13.604;2022-12-16T00:26:55;58.80;;;24.42;;
31282;SDS011;17915;52.540;13.604;2022-12-16T00:29:21;67.32;;;24.92;;
31282;SDS011;17915;52.540;13.604;2022-12-16T00:31:46;52.97;;;23.80;;
31282;SDS011;17915;52.540;13.604;2022-12-16T00:34:15;58.50;;;22.70;;
31282;SDS011;17915;52.540;13.604;2022-12-16T00:36:41;61.25;;;24.00;;
31282;SDS011;17915;52.540;13.604;2022-12-16T00:41:33;52.13;;;21.13;;
31282;SDS011;17915;52.540;13.604;2022-12-16T00:43:58;53.77;;;21.90;;
31282;SDS011;17915;52.540;13.604;2022-12-16T00:46:23;53.87;;;23.83;;
31282;SDS011;17915;52.540;13.604;2022-12-16T00:48:49;52.87;;;20.97;;
31282;SDS011;17915;52.540;13.604;2022-12-16T00:51:14;55.30;;;23.67;;
31282;SDS011;17915;52.540;13.604;2022-12-16T00:53:40;56.17;;;23.33;;
31282;SDS011;17915;52.540;13.604;2022-12-16T00:56:06;65.00;;;24.97;;
31282;SDS011;17915;52.540;13.604;2022-12-16T00:58:33;58.78;;;23.25;;
31282;SDS011;17915;52.540;13.604;2022-12-16T01:00:59;66.35;;;26.48;;
31282;SDS011;17915;52.540;13.604;2022-12-16T01:03:24;60.08;;;23.42;;
31282;SDS011;17915;52.540;13.604;2022-12-16T01:05:50;50.53;;;21.13;;
31282;SDS011;17915;52.540;13.604;2022-12-16T01:08:15;53.97;;;23.80;;
31282;SDS011;17915;52.540;13.604;2022-12-16T01:10:41;55.70;;;22.47;;
31282;SDS011;17915;52.540;13.604;2022-12-16T01:13:06;45.28;;;21.67;;
31282;SDS011;17915;52.540;13.604;2022-12-16T01:15:31;49.20;;;20.63;;
31282;SDS011;17915;52.540;13.604;2022-12-16T01:17:57;63.47;;;24.23;;
31282;SDS011;17915;52.540;13.604;2022-12-16T01:20:22;49.67;;;22.37;;
31282;SDS011;17915;52.540;13.604;2022-12-16T01:22:48;54.17;;;24.38;;
31282;SDS011;17915;52.540;13.604;2022-12-16T01:25:14;61.13;;;21.10;;
31282;SDS011;17915;52.540;13.604;2022-12-16T01:27:39;55.03;;;23.70;;
31282;SDS011;17915;52.540;13.604;2022-12-16T01:30:05;56.72;;;22.17;;
31282;SDS011;17915;52.540;13.604;2022-12-16T01:32:33;57.08;;;23.42;;
31282;SDS011;17915;52.540;13.604;2022-12-16T01:34:58;53.77;;;22.00;;
31282;SDS011;17915;52.540;13.604;2022-12-16T01:37:24;53.20;;;23.05;;
31282;SDS011;17915;52.540;13.604;2022-12-16T01:39:50;54.92;;;25.10;;
31282;SDS011;17915;52.540;13.604;2022-12-16T01:42:17;64.47;;;21.95;;
31282;SDS011;17915;52.540;13.604;2022-12-16T01:44:46;65.63;;;24.90;;
31282;SDS011;17915;52.540;13.604;2022-12-16T01:47:14;47.85;;;20.65;;
31282;SDS011;17915;52.540;13.604;2022-12-16T01:52:31;54.45;;;21.52;;
31282;SDS011;17915;52.540;13.604;2022-12-16T01:57:43;62.13;;;25.30;;
31282;SDS011;17915;52.540;13.604;2022-12-16T02:00:12;58.42;;;22.13;;
31282;SDS011;17915;52.540;13.604;2022-12-16T02:02:38;59.80;;;22.58;;
31282;SDS011;17915;52.540;13.604;2022-12-16T02:05:05;54.75;;;21.15;;
31282;SDS011;17915;52.540;13.604;2022-12-16T02:10:38;61.65;;;23.67;;
31282;SDS011;17915;52.540;13.604;2022-12-16T02:13:09;48.60;;;21.45;;
31282;SDS011;17915;52.540;13.604;2022-12-16T02:32:05;54.67;;;22.25;;
31282;SDS011;17915;52.540;13.604;2022-12-16T02:37:13;52.53;;;22.37;;
31282;SDS011;17915;52.540;13.604;2022-12-16T02:40:00;52.53;;;21.10;;
31282;SDS011;17915;52.540;13.604;2022-12-16T02:42:29;43.33;;;18.63;;
31282;SDS011;17915;52.540;13.604;2022-12-16T02:45:12;54.97;;;19.77;;
31282;SDS011;17915;52.540;13.604;2022-12-16T02:47:42;49.78;;;20.65;;
31282;SDS011;17915;52.540;13.604;2022-12-16T02:50:16;49.17;;;20.80;;
31282;SDS011;17915;52.540;13.604;2022-12-16T02:52:43;56.30;;;21.00;;
31282;SDS011;17915;52.540;13.604;2022-12-16T02:55:09;51.28;;;23.73;;
31282;SDS011;17915;52.540;13.604;2022-12-16T02:57:45;52.05;;;21.38;;
31282;SDS011;17915;52.540;13.604;2022-12-16T03:00:16;56.22;;;21.65;;
31282;SDS011;17915;52.540;13.604;2022-12-16T03:02:46;47.97;;;21.15;;
31282;SDS011;17915;52.540;13.604;2022-12-16T03:05:20;50.95;;;20.45;;
31282;SDS011;17915;52.540;13.604;2022-12-16T03:07:51;54.53;;;23.42;;
31282;SDS011;17915;52.540;13.604;2022-12-16T03:10:18;52.00;;;21.45;;
31282;SDS011;17915;52.540;13.604;2022-12-16T03:12:45;59.50;;;21.63;;
31282;SDS011;17915;52.540;13.604;2022-12-16T03:15:15;48.75;;;20.58;;
31282;SDS011;17915;52.540;13.604;2022-12-16T03:17:43;50.00;;;21.15;;
31282;SDS011;17915;52.540;13.604;2022-12-16T03:20:11;56.42;;;22.80;;
31282;SDS011;17915;52.540;13.604;2022-12-16T03:22:48;49.97;;;22.20;;
31282;SDS011;17915;52.540;13.604;2022-12-16T03:25:15;46.80;;;22.27;;
31282;SDS011;17915;52.540;13.604;2022-12-16T03:27:44;44.97;;;19.42;;
31282;SDS011;17915;52.540;13.604;2022-12-16T03:32:57;45.95;;;22.05;;
31282;SDS011;17915;52.540;13.604;2022-12-16T03:35:36;40.42;;;18.10;;
31282;SDS011;17915;52.540;13.604;2022-12-16T03:38:16;46.80;;;19.02;;
31282;SDS011;17915;52.540;13.604;2022-12-16T03:40:42;62.47;;;23.77;;
31282;SDS011;17915;52.540;13.604;2022-12-16T03:43:09;48.05;;;20.27;;
31282;SDS011;17915;52.540;13.604;2022-12-16T03:45:39;51.67;;;20.05;;
31282;SDS011;17915;52.540;13.604;2022-12-16T03:48:09;46.50;;;19.08;;
31282;SDS011;17915;52.540;13.604;2022-12-16T03:50:35;43.70;;;20.48;;
31282;SDS011;17915;52.540;13.604;2022-12-16T03:55:27;44.78;;;19.08;;
31282;SDS011;17915;52.540;13.604;2022-12-16T03:57:53;45.17;;;19.75;;
31282;SDS011;17915;52.540;13.604;2022-12-16T04:00:18;51.35;;;20.30;;
31282;SDS011;17915;52.540;13.604;2022-12-16T04:02:44;50.53;;;21.63;;
31282;SDS011;17915;52.540;13.604;2022-12-16T04:05:09;52.72;;;20.80;;
31282;SDS011;17915;52.540;13.604;2022-12-16T04:07:35;49.10;;;18.37;;
31282;SDS011;17915;52.540;13.604;2022-12-16T04:10:01;49.20;;;21.63;;
31282;SDS011;17915;52.540;13.604;2022-12-16T04:12:26;42.80;;;19.67;;
31282;SDS011;17915;52.540;13.604;2022-12-16T04:15:10;44.67;;;18.83;;
31282;SDS011;17915;52.540;13.604;2022-12-16T04:17:54;57.42;;;21.70;;
31282;SDS011;17915;52.540;13.604;2022-12-16T04:20:39;59.63;;;20.20;;
31282;SDS011;17915;52.540;13.604;2022-12-16T04:23:27;48.15;;;20.23;;
31282;SDS011;17915;52.540;13.604;2022-12-16T04:26:12;55.88;;;21.63;;
31282;SDS011;17915;52.540;13.604;2022-12-16T04:28:37;52.60;;;22.17;;
31282;SDS011;17915;52.540;13.604;2022-12-16T04:31:03;44.58;;;21.35;;
31282;SDS011;17915;52.540;13.604;2022-12-16T04:33:28;56.47;;;19.92;;
31282;SDS011;17915;52.540;13.604;2022-12-16T04:36:12;45.42;;;21.15;;
31282;SDS011;17915;52.540;13.604;2022-12-16T04:38:56;36.38;;;18.90;;
31282;SDS011;17915;52.540;13.604;2022-12-16T04:41:40;44.13;;;19.65;;
31282;SDS011;17915;52.540;13.604;2022-12-16T04:44:24;43.20;;;19.92;;
31282;SDS011;17915;52.540;13.604;2022-12-16T04:47:08;46.17;;;18.33;;
31282;SDS011;17915;52.540;13.604;2022-12-16T04:49:52;46.28;;;20.58;;
31282;SDS011;17915;52.540;13.604;2022-12-16T04:52:35;48.78;;;21.27;;
31282;SDS011;17915;52.540;13.604;2022-12-16T04:55:19;47.50;;;17.55;;
31282;SDS011;17915;52.540;13.604;2022-12-16T04:58:03;49.90;;;20.58;;
31282;SDS011;17915;52.540;13.604;2022-12-16T05:00:47;46.88;;;19.30;;
31282;SDS011;17915;52.540;13.604;2022-12-16T05:03:31;55.85;;;19.65;;
31282;SDS011;17915;52.540;13.604;2022-12-16T05:06:16;49.83;;;19.30;;
31282;SDS011;17915;52.540;13.604;2022-12-16T05:09:00;49.67;;;19.42;;
31282;SDS011;17915;52.540;13.604;2022-12-16T05:12:01;53.67;;;21.23;;
31282;SDS011;17915;52.540;13.604;2022-12-16T05:14:45;56.65;;;21.65;;
31282;SDS011;17915;52.540;13.604;2022-12-16T05:17:28;55.45;;;22.92;;
31282;SDS011;17915;52.540;13.604;2022-12-16T05:20:12;56.20;;;21.00;;
31282;SDS011;17915;52.540;13.604;2022-12-16T05:22:56;59.28;;;22.33;;
31282;SDS011;17915;52.540;13.604;2022-12-16T05:25:40;63.05;;;21.60;;
31282;SDS011;17915;52.540;13.604;2022-12-16T05:28:25;53.30;;;20.25;;
31282;SDS011;17915;52.540;13.604;2022-12-16T05:31:09;56.03;;;22.38;;
31282;SDS011;17915;52.540;13.604;2022-12-16T05:33:53;60.35;;;22.55;;
31282;SDS011;17915;52.540;13.604;2022-12-16T05:36:37;55.30;;;22.33;;
31282;SDS011;17915;52.540;13.604;2022-12-16T05:39:21;49.05;;;22.63;;
31282;SDS011;17915;52.540;13.604;2022-12-16T05:42:05;52.47;;;20.65;;
31282;SDS011;17915;52.540;13.604;2022-12-16T05:44:49;56.42;;;20.60;;
31282;SDS011;17915;52.540;13.604;2022-12-16T05:47:32;54.35;;;21.58;;
31282;SDS011;17915;52.540;13.604;2022-12-16T05:50:17;54.45;;;23.13;;
31282;SDS011;17915;52.540;13.604;2022-12-16T05:53:00;49.15;;;22.70;;
31282;SDS011;17915;52.540;13.604;2022-12-16T05:55:44;50.72;;;20.67;;
31282;SDS011;17915;52.540;13.604;2022-12-16T05:58:28;45.08;;;21.27;;
31282;SDS011;17915;52.540;13.604;2022-12-16T06:01:12;58.10;;;24.60;;
31282;SDS011;17915;52.540;13.604;2022-12-16T06:03:57;53.15;;;21.95;;
31282;SDS011;17915;52.540;13.604;2022-12-16T06:06:41;54.17;;;22.98;;
31282;SDS011;17915;52.540;13.604;2022-12-16T06:09:25;53.33;;;22.98;;
31282;SDS011;17915;52.540;13.604;2022-12-16T06:12:09;50.88;;;21.65;;
31282;SDS011;17915;52.540;13.604;2022-12-16T06:14:53;43.45;;;20.08;;
31282;SDS011;17915;52.540;13.604;2022-12-16T06:17:40;48.08;;;19.75;;
31282;SDS011;17915;52.540;13.604;2022-12-16T06:23:09;53.50;;;21.50;;
31282;SDS011;17915;52.540;13.604;2022-12-16T06:25:53;51.67;;;21.33;;
31282;SDS011;17915;52.540;13.604;2022-12-16T06:28:37;54.03;;;22.20;;
31282;SDS011;17915;52.540;13.604;2022-12-16T06:31:21;57.75;;;25.60;;
31282;SDS011;17915;52.540;13.604;2022-12-16T06:34:05;44.47;;;21.58;;
31282;SDS011;17915;52.540;13.604;2022-12-16T06:36:49;52.97;;;23.35;;
31282;SDS011;17915;52.540;13.604;2022-12-16T06:39:32;53.25;;;20.92;;
31282;SDS011;17915;52.540;13.604;2022-12-16T06:42:16;59.10;;;22.58;;
31282;SDS011;17915;52.540;13.604;2022-12-16T06:45:00;59.05;;;21.05;;
31282;SDS011;17915;52.540;13.604;2022-12-16T06:47:44;55.33;;;22.25;;
31282;SDS011;17915;52.540;13.604;2022-12-16T06:50:28;56.60;;;23.00;;
31282;SDS011;17915;52.540;13.604;2022-12-16T06:53:12;53.55;;;22.45;;
31282;SDS011;17915;52.540;13.604;2022-12-16T06:56:10;64.75;;;27.50;;
31282;SDS011;17915;52.540;13.604;2022-12-16T06:58:53;50.65;;;21.27;;
31282;SDS011;17915;52.540;13.604;2022-12-16T07:01:38;51.58;;;21.48;;
31282;SDS011;17915;52.540;13.604;2022-12-16T07:04:22;61.97;;;23.45;;
31282;SDS011;17915;52.540;13.604;2022-12-16T07:07:05;62.45;;;25.50;;
31282;SDS011;17915;52.540;13.604;2022-12-16T07:09:49;52.03;;;21.00;;
31282;SDS011;17915;52.540;13.604;2022-12-16T07:12:34;49.70;;;22.20;;
31282;SDS011;17915;52.540;13.604;2022-12-16T07:15:18;46.78;;;21.83;;
31282;SDS011;17915;52.540;13.604;2022-12-16T07:18:02;58.50;;;22.13;;
31282;SDS011;17915;52.540;13.604;2022-12-16T07:20:46;58.88;;;22.55;;
31282;SDS011;17915;52.540;13.604;2022-12-16T07:23:30;53.42;;;22.30;;
31282;SDS011;17915;52.540;13.604;2022-12-16T07:26:14;56.72;;;23.02;;
31282;SDS011;17915;52.540;13.604;2022-12-16T07:28:58;42.72;;;20.90;;
31282;SDS011;17915;52.540;13.604;2022-12-16T07:31:42;51.45;;;22.20;;
31282;SDS011;17915;52.540;13.604;2022-12-16T07:34:25;59.42;;;24.38;;
31282;SDS011;17915;52.540;13.604;2022-12-16T07:37:09;66.22;;;25.52;;
31282;SDS011;17915;52.540;13.604;2022-12-16T07:39:53;50.78;;;23.60;;
31282;SDS011;17915;52.540;13.604;2022-12-16T07:42:40;60.70;;;23.88;;
31282;SDS011;17915;52.540;13.604;2022-12-16T07:45:24;59.13;;;22.55;;
31282;SDS011;17915;52.540;13.604;2022-12-16T07:48:08;52.20;;;21.40;;
31282;SDS011;17915;52.540;13.604;2022-12-16T07:50:52;60.13;;;24.38;;
31282;SDS011;17915;52.540;13.604;2022-12-16T07:53:36;59.13;;;24.63;;
31282;SDS011;17915;52.540;13.604;2022-12-16T07:56:20;57.10;;;22.95;;
31282;SDS011;17915;52.540;13.604;2022-12-16T07:59:04;57.88;;;23.83;;
31282;SDS011;17915;52.540;13.604;2022-12-16T08:01:48;53.53;;;22.83;;
31282;SDS011;17915;52.540;13.604;2022-12-16T08:04:32;53.88;;;23.20;;
31282;SDS011;17915;52.540;13.604;2022-12-16T08:07:16;58.75;;;22.95;;
31282;SDS011;17915;52.540;13.604;2022-12-16T08:10:00;52.20;;;22.38;;
31282;SDS011;17915;52.540;13.604;2022-12-16T08:12:44;57.35;;;23.15;;
31282;SDS011;17915;52.540;13.604;2022-12-16T08:15:28;46.65;;;21.27;;
31282;SDS011;17915;52.540;13.604;2022-12-16T08:18:12;59.13;;;22.70;;
31282;SDS011;17915;52.540;13.604;2022-12-16T08:20:56;56.67;;;24.25;;
31282;SDS011;17915;52.540;13.604;2022-12-16T08:23:40;52.90;;;21.58;;
31282;SDS011;17915;52.540;13.604;2022-12-16T08:26:24;48.83;;;21.00;;
31282;SDS011;17915;52.540;13.604;2022-12-16T08:29:08;47.60;;;23.27;;
31282;SDS011;17915;52.540;13.604;2022-12-16T08:31:53;55.47;;;22.70;;
31282;SDS011;17915;52.540;13.604;2022-12-16T08:34:38;58.30;;;21.60;;
31282;SDS011;17915;52.540;13.604;2022-12-16T08:37:22;47.10;;;20.38;;
31282;SDS011;17915;52.540;13.604;2022-12-16T08:40:06;50.10;;;20.75;;
31282;SDS011;17915;52.540;13.604;2022-12-16T08:42:50;53.90;;;22.77;;
31282;SDS011;17915;52.540;13.604;2022-12-16T08:45:33;46.90;;;22.00;;
31282;SDS011;17915;52.540;13.604;2022-12-16T08:48:17;54.95;;;24.30;;
31282;SDS011;17915;52.540;13.604;2022-12-16T08:51:02;63.20;;;23.17;;
31282;SDS011;17915;52.540;13.604;2022-12-16T08:53:47;50.55;;;21.00;;
31282;SDS011;17915;52.540;13.604;2022-12-16T08:56:31;50.75;;;22.90;;
31282;SDS011;17915;52.540;13.604;2022-12-16T08:59:15;48.40;;;22.65;;
31282;SDS011;17915;52.540;13.604;2022-12-16T09:01:59;62.58;;;26.58;;
31282;SDS011;17915;52.540;13.604;2022-12-16T09:04:43;57.53;;;23.00;;
31282;SDS011;17915;52.540;13.604;2022-12-16T09:07:27;59.05;;;23.33;;
31282;SDS011;17915;52.540;13.604;2022-12-16T09:10:11;55.88;;;24.05;;
31282;SDS011;17915;52.540;13.604;2022-12-16T09:13:04;54.83;;;22.60;;
31282;SDS011;17915;52.540;13.604;2022-12-16T09:15:51;54.72;;;22.15;;
31282;SDS011;17915;52.540;13.604;2022-12-16T09:18:35;58.72;;;24.73;;
31282;SDS011;17915;52.540;13.604;2022-12-16T09:21:19;63.00;;;27.08;;
31282;SDS011;17915;52.540;13.604;2022-12-16T09:24:03;67.38;;;24.13;;
31282;SDS011;17915;52.540;13.604;2022-12-16T09:26:47;73.60;;;24.05;;
31282;SDS011;17915;52.540;13.604;2022-12-16T09:29:31;61.95;;;25.77;;
31282;SDS011;17915;52.540;13.604;2022-12-16T09:32:23;67.07;;;26.13;;
31282;SDS011;17915;52.540;13.604;2022-12-16T09:35:07;65.35;;;28.23;;
31282;SDS011;17915;52.540;13.604;2022-12-16T09:37:51;59.33;;;26.35;;
31282;SDS011;17915;52.540;13.604;2022-12-16T09:40:38;72.43;;;30.92;;
31282;SDS011;17915;52.540;13.604;2022-12-16T09:51:48;74.55;;;32.72;;
31282;SDS011;17915;52.540;13.604;2022-12-16T09:54:33;67.63;;;30.67;;
31282;SDS011;17915;52.540;13.604;2022-12-16T09:57:19;72.47;;;31.63;;
31282;SDS011;17915;52.540;13.604;2022-12-16T10:00:04;78.88;;;32.40;;
31282;SDS011;17915;52.540;13.604;2022-12-16T10:02:50;66.88;;;29.42;;
31282;SDS011;17915;52.540;13.604;2022-12-16T10:05:52;68.07;;;30.52;;
31282;SDS011;17915;52.540;13.604;2022-12-16T10:08:43;71.70;;;30.55;;
31282;SDS011;17915;52.540;13.604;2022-12-16T10:11:39;60.03;;;29.00;;
31282;SDS011;17915;52.540;13.604;2022-12-16T10:14:55;74.68;;;32.13;;
31282;SDS011;17915;52.540;13.604;2022-12-16T10:18:03;71.03;;;30.58;;
31282;SDS011;17915;52.540;13.604;2022-12-16T10:20:50;68.53;;;31.23;;
31282;SDS011;17915;52.540;13.604;2022-12-16T10:23:52;66.90;;;28.67;;
31282;SDS011;17915;52.540;13.604;2022-12-16T10:29:51;60.08;;;28.00;;
31282;SDS011;17915;52.540;13.604;2022-12-16T10:35:26;63.05;;;30.27;;
31282;SDS011;17915;52.540;13.604;2022-12-16T10:38:13;62.90;;;30.98;;
31282;SDS011;17915;52.540;13.604;2022-12-16T10:41:03;63.65;;;29.85;;
31282;SDS011;17915;52.540;13.604;2022-12-16T10:43:48;81.05;;;34.33;;
31282;SDS011;17915;52.540;13.604;2022-12-16T10:46:38;59.95;;;30.40;;
31282;SDS011;17915;52.540;13.604;2022-12-16T10:49:21;70.78;;;31.52;;
31282;SDS011;17915;52.540;13.604;2022-12-16T10:52:05;70.85;;;32.10;;
31282;SDS011;17915;52.540;13.604;2022-12-16T10:54:56;74.82;;;31.25;;
31282;SDS011;17915;52.540;13.604;2022-12-16T10:57:56;57.13;;;26.67;;
31282;SDS011;17915;52.540;13.604;2022-12-16T11:01:02;63.35;;;29.60;;
31282;SDS011;17915;52.540;13.604;2022-12-16T11:04:21;72.45;;;26.98;;
31282;SDS011;17915;52.540;13.604;2022-12-16T11:10:34;71.95;;;30.73;;
31282;SDS011;17915;52.540;13.604;2022-12-16T11:13:33;75.88;;;31.45;;
31282;SDS011;17915;52.540;13.604;2022-12-16T11:19:02;66.18;;;30.88;;
31282;SDS011;17915;52.540;13.604;2022-12-16T11:21:47;69.07;;;32.20;;
31282;SDS011;17915;52.540;13.604;2022-12-16T11:24:31;72.38;;;29.00;;
31282;SDS011;17915;52.540;13.604;2022-12-16T11:27:25;67.72;;;29.90;;
31282;SDS011;17915;52.540;13.604;2022-12-16T11:32:57;74.00;;;29.80;;
31282;SDS011;17915;52.540;13.604;2022-12-16T11:35:45;69.90;;;27.77;;
31282;SDS011;17915;52.540;13.604;2022-12-16T11:38:42;59.38;;;28.25;;
31282;SDS011;17915;52.540;13.604;2022-12-16T11:41:32;64.43;;;29.35;;
31282;SDS011;17915;52.540;13.604;2022-12-16T11:44:28;63.88;;;28.80;;
31282;SDS011;17915;52.540;13.604;2022-12-16T11:47:21;56.38;;;25.63;;
31282;SDS011;17915;52.540;13.604;2022-12-16T11:50:20;63.22;;;26.67;;
31282;SDS011;17915;52.540;13.604;2022-12-16T11:53:06;58.25;;;26.80;;
31282;SDS011;17915;52.540;13.604;2022-12-16T11:56:07;64.97;;;27.88;;
31282;SDS011;17915;52.540;13.604;2022-12-16T11:58:52;57.22;;;26.00;;
31282;SDS011;17915;52.540;13.604;2022-12-16T12:01:51;71.07;;;30.05;;
31282;SDS011;17915;52.540;13.604;2022-12-16T12:04:38;59.65;;;27.48;;
31282;SDS011;17915;52.540;13.604;2022-12-16T12:16:19;59.80;;;27.77;;
31282;SDS011;17915;52.540;13.604;2022-12-16T12:19:14;58.35;;;29.50;;
31282;SDS011;17915;52.540;13.604;2022-12-16T12:22:09;69.43;;;28.50;;
31282;SDS011;17915;52.540;13.604;2022-12-16T12:27:58;64.88;;;29.20;;
31282;SDS011;17915;52.540;13.604;2022-12-16T12:31:01;58.15;;;28.60;;
31282;SDS011;17915;52.540;13.604;2022-12-16T12:40:28;66.22;;;27.20;;
31282;SDS011;17915;52.540;13.604;2022-12-16T12:43:58;60.75;;;29.63;;
31282;SDS011;17915;52.540;13.604;2022-12-16T12:46:53;60.83;;;29.20;;
31282;SDS011;17915;52.540;13.604;2022-12-16T12:58:31;71.55;;;29.45;;
31282;SDS011;17915;52.540;13.604;2022-12-16T13:01:18;73.57;;;32.28;;
31282;SDS011;17915;52.540;13.604;2022-12-16T13:04:12;65.75;;;29.10;;
31282;SDS011;17915;52.540;13.604;2022-12-16T13:07:01;63.10;;;30.00;;
31282;SDS011;17915;52.540;13.604;2022-12-16T13:09:45;70.45;;;30.45;;
31282;SDS011;17915;52.540;13.604;2022-12-16T13:16:00;70.25;;;31.90;;
31282;SDS011;17915;52.540;13.604;2022-12-16T13:18:44;61.65;;;29.58;;
31282;SDS011;17915;52.540;13.604;2022-12-16T13:25:07;63.17;;;28.40;;
31282;SDS011;17915;52.540;13.604;2022-12-16T13:27:43;57.78;;;27.23;;
31282;SDS011;17915;52.540;13.604;2022-12-16T13:30:29;59.63;;;30.60;;
31282;SDS011;17915;52.540;13.604;2022-12-16T13:33:24;66.40;;;28.63;;
31282;SDS011;17915;52.540;13.604;2022-12-16T13:36:10;64.88;;;28.60;;
31282;SDS011;17915;52.540;13.604;2022-12-16T13:38:56;73.03;;;28.73;;
31282;SDS011;17915;52.540;13.604;2022-12-16T13:53:28;69.25;;;30.35;;
31282;SDS011;17915;52.540;13.604;2022-12-16T13:56:15;63.72;;;29.08;;
31282;SDS011;17915;52.540;13.604;2022-12-16T13:59:15;63.05;;;29.02;;
31282;SDS011;17915;52.540;13.604;2022-12-16T14:02:02;71.50;;;30.10;;
31282;SDS011;17915;52.540;13.604;2022-12-16T14:04:58;73.82;;;31.23;;
31282;SDS011;17915;52.540;13.604;2022-12-16T14:08:02;68.97;;;30.25;;
31282;SDS011;17915;52.540;13.604;2022-12-16T14:10:47;70.18;;;28.13;;
31282;SDS011;17915;52.540;13.604;2022-12-16T14:13:39;71.57;;;29.52;;
31282;SDS011;17915;52.540;13.604;2022-12-16T14:25:29;73.55;;;33.35;;
31282;SDS011;17915;52.540;13.604;2022-12-16T14:31:20;70.85;;;29.27;;
31282;SDS011;17915;52.540;13.604;2022-12-16T14:34:16;67.68;;;31.42;;
31282;SDS011;17915;52.540;13.604;2022-12-16T14:37:21;62.85;;;29.65;;
31282;SDS011;17915;52.540;13.604;2022-12-16T14:40:20;71.38;;;33.22;;
31282;SDS011;17915;52.540;13.604;2022-12-16T14:43:21;63.20;;;28.02;;
31282;SDS011;17915;52.540;13.604;2022-12-16T14:46:23;74.43;;;31.45;;
31282;SDS011;17915;52.540;13.604;2022-12-16T14:49:18;80.95;;;31.95;;
31282;SDS011;17915;52.540;13.604;2022-12-16T14:52:26;75.68;;;31.50;;
31282;SDS011;17915;52.540;13.604;2022-12-16T15:03:59;75.00;;;31.90;;
31282;SDS011;17915;52.540;13.604;2022-12-16T15:06:47;70.28;;;30.95;;
31282;SDS011;17915;52.540;13.604;2022-12-16T15:09:43;74.88;;;31.77;;
31282;SDS011;17915;52.540;13.604;2022-12-16T15:12:30;72.75;;;30.48;;
31282;SDS011;17915;52.540;13.604;2022-12-16T15:15:25;66.82;;;31.60;;
31282;SDS011;17915;52.540;13.604;2022-12-16T15:18:15;74.93;;;32.90;;
31282;SDS011;17915;52.540;13.604;2022-12-16T15:21:02;72.63;;;31.70;;
31282;SDS011;17915;52.540;13.604;2022-12-16T15:23:45;72.15;;;30.23;;
31282;SDS011;17915;52.540;13.604;2022-12-16T15:26:30;67.80;;;28.73;;
31282;SDS011;17915;52.540;13.604;2022-12-16T15:29:49;71.40;;;30.02;;
31282;SDS011;17915;52.540;13.604;2022-12-16T15:44:16;77.47;;;34.25;;
31282;SDS011;17915;52.540;13.604;2022-12-16T15:47:02;66.80;;;32.90;;
31282;SDS011;17915;52.540;13.604;2022-12-16T15:49:56;73.35;;;34.25;;
31282;SDS011;17915;52.540;13.604;2022-12-16T15:52:42;77.63;;;33.53;;
31282;SDS011;17915;52.540;13.604;2022-12-16T16:01:06;96.03;;;37.17;;
31282;SDS011;17915;52.540;13.604;2022-12-16T16:03:52;68.30;;;32.10;;
31282;SDS011;17915;52.540;13.604;2022-12-16T16:06:40;78.47;;;32.47;;
31282;SDS011;17915;52.540;13.604;2022-12-16T16:09:28;83.80;;;32.92;;
31282;SDS011;17915;52.540;13.604;2022-12-16T16:12:18;84.38;;;36.40;;
31282;SDS011;17915;52.540;13.604;2022-12-16T16:15:04;71.82;;;31.95;;
31282;SDS011;17915;52.540;13.604;2022-12-16T16:17:52;74.90;;;34.28;;
31282;SDS011;17915;52.540;13.604;2022-12-16T16:20:57;78.88;;;36.65;;
31282;SDS011;17915;52.540;13.604;2022-12-16T16:23:41;77.13;;;35.08;;
31282;SDS011;17915;52.540;13.604;2022-12-16T16:26:25;78.78;;;34.30;;
31282;SDS011;17915;52.540;13.604;2022-12-16T16:29:11;78.47;;;32.60;;
31282;SDS011;17915;52.540;13.604;2022-12-16T16:31:55;75.97;;;31.67;;
31282;SDS011;17915;52.540;13.604;2022-12-16T16:34:39;82.05;;;34.47;;
31282;SDS011;17915;52.540;13.604;2022-12-16T16:37:23;81.90;;;35.30;;
31282;SDS011;17915;52.540;13.604;2022-12-16T16:40:18;75.35;;;34.92;;
31282;SDS011;17915;52.540;13.604;2022-12-16T16:43:03;71.57;;;32.03;;
31282;SDS011;17915;52.540;13.604;2022-12-16T16:45:53;82.68;;;36.05;;
31282;SDS011;17915;52.540;13.604;2022-12-16T16:48:37;78.07;;;32.38;;
31282;SDS011;17915;52.540;13.604;2022-12-16T16:51:21;85.38;;;34.40;;
31282;SDS011;17915;52.540;13.604;2022-12-16T16:54:06;85.88;;;37.85;;
31282;SDS011;17915;52.540;13.604;2022-12-16T16:56:50;85.82;;;34.78;;
31282;SDS011;17915;52.540;13.604;2022-12-16T16:59:34;81.90;;;36.03;;
31282;SDS011;17915;52.540;13.604;2022-12-16T17:02:19;81.57;;;36.30;;
31282;SDS011;17915;52.540;13.604;2022-12-16T17:05:04;85.82;;;36.08;;
31282;SDS011;17915;52.540;13.604;2022-12-16T17:07:49;77.55;;;37.45;;
31282;SDS011;17915;52.540;13.604;2022-12-16T17:10:33;88.00;;;39.15;;
31282;SDS011;17915;52.540;13.604;2022-12-16T17:13:17;79.32;;;34.78;;
31282;SDS011;17915;52.540;13.604;2022-12-16T17:16:02;72.93;;;33.60;;
31282;SDS011;17915;52.540;13.604;2022-12-16T17:18:46;77.60;;;34.72;;
31282;SDS011;17915;52.540;13.604;2022-12-16T17:21:30;78.20;;;33.67;;
31282;SDS011;17915;52.540;13.604;2022-12-16T17:24:14;79.10;;;34.72;;
31282;SDS011;17915;52.540;13.604;2022-12-16T17:26:58;76.20;;;35.95;;
31282;SDS011;17915;52.540;13.604;2022-12-16T17:29:50;74.97;;;33.13;;
31282;SDS011;17915;52.540;13.604;2022-12-16T17:32:34;86.43;;;34.55;;
31282;SDS011;17915;52.540;13.604;2022-12-16T17:35:18;74.28;;;34.85;;
31282;SDS011;17915;52.540;13.604;2022-12-16T17:38:02;74.07;;;33.70;;
31282;SDS011;17915;52.540;13.604;2022-12-16T17:40:50;80.78;;;34.75;;
31282;SDS011;17915;52.540;13.604;2022-12-16T17:43:35;76.00;;;33.00;;
31282;SDS011;17915;52.540;13.604;2022-12-16T17:46:19;75.18;;;31.92;;
31282;SDS011;17915;52.540;13.604;2022-12-16T17:49:03;78.63;;;34.33;;
31282;SDS011;17915;52.540;13.604;2022-12-16T17:51:47;70.43;;;32.78;;
31282;SDS011;17915;52.540;13.604;2022-12-16T17:54:31;82.00;;;33.88;;
31282;SDS011;17915;52.540;13.604;2022-12-16T17:57:14;70.03;;;32.85;;
31282;SDS011;17915;52.540;13.604;2022-12-16T17:59:58;84.43;;;34.75;;